sensor_id;sensor_type;location;lat;lon;timestamp;P1;durP1;ratioP1;P2;durP2;ratioP2
9178;SDS011;4624;48.126;11.546;2022-12-08T00:00:44;10.73;;;8.33;;
9178;SDS011;4624;48.126;11.546;2022-12-08T00:03:11;10.67;;;7.90;;
9178;SDS011;4624;48.126;11.546;2022-12-08T00:05:44;11.87;;;7.70;;
9178;SDS011;4624;48.126;11.546;2022-12-08T00:08:28;11.53;;;7.97;;
9178;SDS011;4624;48.126;11.546;2022-12-08T00:11:13;10.43;;;7.63;;
9178;SDS011;4624;48.126;11.546;2022-12-08T00:13:40;10.43;;;7.87;;
9178;SDS011;4624;48.126;11.546;2022-12-08T00:16:07;11.73;;;8.57;;
9178;SDS011;4624;48.126;11.546;2022-12-08T00:18:34;14.33;;;8.83;;
9178;SDS011;4624;48.126;11.546;2022-12-08T00:21:02;14.17;;;9.10;;
9178;SDS011;4624;48.126;11.546;2022-12-08T00:23:29;9.67;;;7.17;;
9178;SDS011;4624;48.126;11.546;2022-12-08T00:26:00;10.50;;;8.10;;
9178;SDS011;4624;48.126;11.546;2022-12-08T00:28:27;9.60;;;7.83;;
9178;SDS011;4624;48.126;11.546;2022-12-08T00:30:54;10.27;;;8.20;;
9178;SDS011;4624;48.126;11.546;2022-12-08T00:33:20;10.00;;;7.80;;
9178;SDS011;4624;48.126;11.546;2022-12-08T00:35:47;11.20;;;8.07;;
9178;SDS011;4624;48.126;11.546;2022-12-08T00:38:15;10.83;;;8.00;;
9178;SDS011;4624;48.126;11.546;2022-12-08T00:40:42;10.27;;;8.20;;
9178;SDS011;4624;48.126;11.546;2022-12-08T00:43:10;10.30;;;8.00;;
9178;SDS011;4624;48.126;11.546;2022-12-08T00:45:37;11.77;;;7.93;;
9178;SDS011;4624;48.126;11.546;2022-12-08T00:48:04;10.37;;;8.13;;
9178;SDS011;4624;48.126;11.546;2022-12-08T00:50:31;11.43;;;8.20;;
9178;SDS011;4624;48.126;11.546;2022-12-08T00:52:58;10.87;;;8.10;;
9178;SDS011;4624;48.126;11.546;2022-12-08T00:55:26;9.63;;;7.67;;
9178;SDS011;4624;48.126;11.546;2022-12-08T00:57:53;10.33;;;8.00;;
9178;SDS011;4624;48.126;11.546;2022-12-08T01:00:19;10.90;;;7.70;;
9178;SDS011;4624;48.126;11.546;2022-12-08T01:02:46;10.20;;;8.13;;
9178;SDS011;4624;48.126;11.546;2022-12-08T01:05:13;11.80;;;8.60;;
9178;SDS011;4624;48.126;11.546;2022-12-08T01:07:40;9.20;;;7.50;;
9178;SDS011;4624;48.126;11.546;2022-12-08T01:10:07;11.20;;;8.63;;
9178;SDS011;4624;48.126;11.546;2022-12-08T01:12:35;10.13;;;8.10;;
9178;SDS011;4624;48.126;11.546;2022-12-08T01:15:02;10.20;;;8.10;;
9178;SDS011;4624;48.126;11.546;2022-12-08T01:17:29;10.63;;;7.77;;
9178;SDS011;4624;48.126;11.546;2022-12-08T01:19:56;11.27;;;8.20;;
9178;SDS011;4624;48.126;11.546;2022-12-08T01:22:23;10.77;;;7.93;;
9178;SDS011;4624;48.126;11.546;2022-12-08T01:24:50;10.23;;;7.73;;
9178;SDS011;4624;48.126;11.546;2022-12-08T01:27:17;11.43;;;8.00;;
9178;SDS011;4624;48.126;11.546;2022-12-08T01:29:45;11.17;;;7.83;;
9178;SDS011;4624;48.126;11.546;2022-12-08T01:32:12;12.80;;;8.73;;
9178;SDS011;4624;48.126;11.546;2022-12-08T01:34:38;11.80;;;8.40;;
9178;SDS011;4624;48.126;11.546;2022-12-08T01:37:05;12.53;;;8.57;;
9178;SDS011;4624;48.126;11.546;2022-12-08T01:39:32;11.00;;;8.63;;
9178;SDS011;4624;48.126;11.546;2022-12-08T01:41:59;11.17;;;8.80;;
9178;SDS011;4624;48.126;11.546;2022-12-08T01:47:21;12.07;;;9.20;;
9178;SDS011;4624;48.126;11.546;2022-12-08T01:49:52;13.33;;;9.00;;
9178;SDS011;4624;48.126;11.546;2022-12-08T01:52:20;10.77;;;8.13;;
9178;SDS011;4624;48.126;11.546;2022-12-08T01:54:52;11.17;;;8.10;;
9178;SDS011;4624;48.126;11.546;2022-12-08T01:57:23;13.20;;;9.30;;
9178;SDS011;4624;48.126;11.546;2022-12-08T01:59:55;11.27;;;8.33;;
9178;SDS011;4624;48.126;11.546;2022-12-08T02:02:26;10.43;;;7.50;;
9178;SDS011;4624;48.126;11.546;2022-12-08T02:04:57;11.57;;;8.33;;
9178;SDS011;4624;48.126;11.546;2022-12-08T02:07:24;10.87;;;8.27;;
9178;SDS011;4624;48.126;11.546;2022-12-08T02:09:51;12.73;;;8.37;;
9178;SDS011;4624;48.126;11.546;2022-12-08T02:12:19;12.70;;;8.27;;
9178;SDS011;4624;48.126;11.546;2022-12-08T02:14:46;11.17;;;8.90;;
9178;SDS011;4624;48.126;11.546;2022-12-08T02:17:18;11.27;;;8.20;;
9178;SDS011;4624;48.126;11.546;2022-12-08T02:23:03;10.90;;;8.40;;
9178;SDS011;4624;48.126;11.546;2022-12-08T02:25:40;9.97;;;7.57;;
9178;SDS011;4624;48.126;11.546;2022-12-08T02:28:28;11.37;;;8.47;;
9178;SDS011;4624;48.126;11.546;2022-12-08T02:31:17;9.83;;;7.97;;
9178;SDS011;4624;48.126;11.546;2022-12-08T02:36:49;10.73;;;7.93;;
9178;SDS011;4624;48.126;11.546;2022-12-08T02:39:27;11.30;;;8.53;;
9178;SDS011;4624;48.126;11.546;2022-12-08T02:42:01;13.87;;;9.27;;
9178;SDS011;4624;48.126;11.546;2022-12-08T02:44:34;13.67;;;9.13;;
9178;SDS011;4624;48.126;11.546;2022-12-08T02:47:07;12.13;;;8.80;;
9178;SDS011;4624;48.126;11.546;2022-12-08T02:49:38;12.20;;;8.97;;
9178;SDS011;4624;48.126;11.546;2022-12-08T02:52:05;12.80;;;7.87;;
9178;SDS011;4624;48.126;11.546;2022-12-08T02:54:33;12.33;;;9.20;;
9178;SDS011;4624;48.126;11.546;2022-12-08T02:57:11;11.63;;;8.97;;
9178;SDS011;4624;48.126;11.546;2022-12-08T03:00:01;12.53;;;9.03;;
9178;SDS011;4624;48.126;11.546;2022-12-08T03:02:41;14.37;;;9.20;;
9178;SDS011;4624;48.126;11.546;2022-12-08T03:05:19;12.23;;;8.30;;
9178;SDS011;4624;48.126;11.546;2022-12-08T03:07:53;11.67;;;8.57;;
9178;SDS011;4624;48.126;11.546;2022-12-08T03:10:28;12.27;;;8.93;;
9178;SDS011;4624;48.126;11.546;2022-12-08T03:12:59;13.83;;;9.30;;
9178;SDS011;4624;48.126;11.546;2022-12-08T03:15:30;11.03;;;8.50;;
9178;SDS011;4624;48.126;11.546;2022-12-08T03:18:00;12.37;;;9.00;;
9178;SDS011;4624;48.126;11.546;2022-12-08T03:20:30;13.30;;;9.17;;
9178;SDS011;4624;48.126;11.546;2022-12-08T03:22:59;11.63;;;8.13;;
9178;SDS011;4624;48.126;11.546;2022-12-08T03:25:29;12.30;;;8.90;;
9178;SDS011;4624;48.126;11.546;2022-12-08T03:28:00;13.40;;;8.43;;
9178;SDS011;4624;48.126;11.546;2022-12-08T03:30:27;13.30;;;9.27;;
9178;SDS011;4624;48.126;11.546;2022-12-08T03:32:58;11.40;;;8.30;;
9178;SDS011;4624;48.126;11.546;2022-12-08T03:35:31;13.03;;;9.50;;
9178;SDS011;4624;48.126;11.546;2022-12-08T03:38:00;12.37;;;8.57;;
9178;SDS011;4624;48.126;11.546;2022-12-08T03:40:28;11.97;;;8.30;;
9178;SDS011;4624;48.126;11.546;2022-12-08T03:42:55;12.03;;;9.17;;
9178;SDS011;4624;48.126;11.546;2022-12-08T03:45:22;14.00;;;9.77;;
9178;SDS011;4624;48.126;11.546;2022-12-08T03:47:49;12.73;;;8.63;;
9178;SDS011;4624;48.126;11.546;2022-12-08T03:50:16;13.83;;;9.13;;
9178;SDS011;4624;48.126;11.546;2022-12-08T03:52:44;12.07;;;8.67;;
9178;SDS011;4624;48.126;11.546;2022-12-08T03:55:11;12.33;;;9.10;;
9178;SDS011;4624;48.126;11.546;2022-12-08T03:57:38;12.97;;;8.77;;
9178;SDS011;4624;48.126;11.546;2022-12-08T04:00:06;12.57;;;9.37;;
9178;SDS011;4624;48.126;11.546;2022-12-08T04:02:34;15.37;;;9.70;;
9178;SDS011;4624;48.126;11.546;2022-12-08T04:05:01;12.60;;;9.77;;
9178;SDS011;4624;48.126;11.546;2022-12-08T04:07:28;13.10;;;9.07;;
9178;SDS011;4624;48.126;11.546;2022-12-08T04:09:56;12.03;;;8.80;;
9178;SDS011;4624;48.126;11.546;2022-12-08T04:12:23;12.90;;;9.03;;
9178;SDS011;4624;48.126;11.546;2022-12-08T04:14:49;13.07;;;9.17;;
9178;SDS011;4624;48.126;11.546;2022-12-08T04:17:16;11.30;;;9.07;;
9178;SDS011;4624;48.126;11.546;2022-12-08T04:19:43;13.23;;;9.43;;
9178;SDS011;4624;48.126;11.546;2022-12-08T04:22:10;11.57;;;8.60;;
9178;SDS011;4624;48.126;11.546;2022-12-08T04:24:36;12.23;;;9.00;;
9178;SDS011;4624;48.126;11.546;2022-12-08T04:27:04;13.90;;;9.33;;
9178;SDS011;4624;48.126;11.546;2022-12-08T04:29:31;12.40;;;9.00;;
9178;SDS011;4624;48.126;11.546;2022-12-08T04:31:58;12.97;;;9.13;;
9178;SDS011;4624;48.126;11.546;2022-12-08T04:34:24;13.70;;;9.37;;
9178;SDS011;4624;48.126;11.546;2022-12-08T04:36:51;11.00;;;8.60;;
9178;SDS011;4624;48.126;11.546;2022-12-08T04:39:18;12.37;;;9.00;;
9178;SDS011;4624;48.126;11.546;2022-12-08T04:41:45;12.40;;;8.90;;
9178;SDS011;4624;48.126;11.546;2022-12-08T04:44:13;15.83;;;9.77;;
9178;SDS011;4624;48.126;11.546;2022-12-08T04:46:39;15.10;;;9.50;;
9178;SDS011;4624;48.126;11.546;2022-12-08T04:49:06;14.00;;;9.23;;
9178;SDS011;4624;48.126;11.546;2022-12-08T04:51:33;14.27;;;9.27;;
9178;SDS011;4624;48.126;11.546;2022-12-08T04:54:00;15.03;;;10.20;;
9178;SDS011;4624;48.126;11.546;2022-12-08T04:56:26;12.93;;;9.50;;
9178;SDS011;4624;48.126;11.546;2022-12-08T04:58:53;14.97;;;9.73;;
9178;SDS011;4624;48.126;11.546;2022-12-08T05:01:21;12.10;;;8.97;;
9178;SDS011;4624;48.126;11.546;2022-12-08T05:03:48;11.77;;;8.93;;
9178;SDS011;4624;48.126;11.546;2022-12-08T05:06:15;12.23;;;9.03;;
9178;SDS011;4624;48.126;11.546;2022-12-08T05:08:42;14.33;;;9.77;;
9178;SDS011;4624;48.126;11.546;2022-12-08T05:11:09;12.57;;;8.87;;
9178;SDS011;4624;48.126;11.546;2022-12-08T05:13:37;13.53;;;9.37;;
9178;SDS011;4624;48.126;11.546;2022-12-08T05:16:04;12.07;;;8.63;;
9178;SDS011;4624;48.126;11.546;2022-12-08T05:18:34;12.23;;;9.27;;
9178;SDS011;4624;48.126;11.546;2022-12-08T05:21:01;12.70;;;8.80;;
9178;SDS011;4624;48.126;11.546;2022-12-08T05:23:29;10.87;;;9.00;;
9178;SDS011;4624;48.126;11.546;2022-12-08T05:25:56;11.83;;;8.50;;
9178;SDS011;4624;48.126;11.546;2022-12-08T05:28:23;11.57;;;8.43;;
9178;SDS011;4624;48.126;11.546;2022-12-08T05:30:50;11.67;;;8.13;;
9178;SDS011;4624;48.126;11.546;2022-12-08T05:33:17;12.73;;;8.07;;
9178;SDS011;4624;48.126;11.546;2022-12-08T05:35:45;11.37;;;8.40;;
9178;SDS011;4624;48.126;11.546;2022-12-08T05:38:12;11.37;;;7.73;;
9178;SDS011;4624;48.126;11.546;2022-12-08T05:40:38;12.57;;;8.70;;
9178;SDS011;4624;48.126;11.546;2022-12-08T05:43:07;12.80;;;8.93;;
9178;SDS011;4624;48.126;11.546;2022-12-08T05:45:35;10.63;;;8.27;;
9178;SDS011;4624;48.126;11.546;2022-12-08T05:48:02;11.50;;;8.33;;
9178;SDS011;4624;48.126;11.546;2022-12-08T05:50:29;10.90;;;9.03;;
9178;SDS011;4624;48.126;11.546;2022-12-08T05:52:57;10.93;;;8.03;;
9178;SDS011;4624;48.126;11.546;2022-12-08T05:55:23;11.03;;;8.00;;
9178;SDS011;4624;48.126;11.546;2022-12-08T05:57:50;8.03;;;7.17;;
9178;SDS011;4624;48.126;11.546;2022-12-08T06:00:17;9.20;;;7.70;;
9178;SDS011;4624;48.126;11.546;2022-12-08T06:02:45;11.50;;;7.87;;
9178;SDS011;4624;48.126;11.546;2022-12-08T06:05:12;11.43;;;8.43;;
9178;SDS011;4624;48.126;11.546;2022-12-08T06:07:38;11.33;;;8.63;;
9178;SDS011;4624;48.126;11.546;2022-12-08T06:10:07;10.00;;;7.77;;
9178;SDS011;4624;48.126;11.546;2022-12-08T06:12:34;11.30;;;8.13;;
9178;SDS011;4624;48.126;11.546;2022-12-08T06:15:01;12.97;;;8.57;;
9178;SDS011;4624;48.126;11.546;2022-12-08T06:17:28;10.40;;;7.73;;
9178;SDS011;4624;48.126;11.546;2022-12-08T06:19:55;9.70;;;7.80;;
9178;SDS011;4624;48.126;11.546;2022-12-08T06:22:21;8.83;;;7.23;;
9178;SDS011;4624;48.126;11.546;2022-12-08T06:24:48;10.03;;;6.83;;
9178;SDS011;4624;48.126;11.546;2022-12-08T06:27:16;8.83;;;7.33;;
9178;SDS011;4624;48.126;11.546;2022-12-08T06:29:43;8.40;;;7.33;;
9178;SDS011;4624;48.126;11.546;2022-12-08T06:32:10;9.87;;;7.30;;
9178;SDS011;4624;48.126;11.546;2022-12-08T06:34:36;12.10;;;8.20;;
9178;SDS011;4624;48.126;11.546;2022-12-08T06:37:03;11.63;;;8.13;;
9178;SDS011;4624;48.126;11.546;2022-12-08T06:39:30;13.10;;;8.77;;
9178;SDS011;4624;48.126;11.546;2022-12-08T06:41:57;9.67;;;7.80;;
9178;SDS011;4624;48.126;11.546;2022-12-08T06:44:42;9.07;;;7.33;;
9178;SDS011;4624;48.126;11.546;2022-12-08T06:47:09;10.20;;;7.80;;
9178;SDS011;4624;48.126;11.546;2022-12-08T06:49:36;9.47;;;7.67;;
9178;SDS011;4624;48.126;11.546;2022-12-08T06:52:03;8.37;;;7.40;;
9178;SDS011;4624;48.126;11.546;2022-12-08T06:54:29;10.60;;;8.73;;
9178;SDS011;4624;48.126;11.546;2022-12-08T06:56:56;9.83;;;7.10;;
9178;SDS011;4624;48.126;11.546;2022-12-08T06:59:23;11.07;;;7.90;;
9178;SDS011;4624;48.126;11.546;2022-12-08T07:01:52;9.57;;;7.83;;
9178;SDS011;4624;48.126;11.546;2022-12-08T07:04:18;10.00;;;7.53;;
9178;SDS011;4624;48.126;11.546;2022-12-08T07:06:45;10.57;;;8.93;;
9178;SDS011;4624;48.126;11.546;2022-12-08T07:09:12;9.83;;;8.13;;
9178;SDS011;4624;48.126;11.546;2022-12-08T07:11:39;12.07;;;8.67;;
9178;SDS011;4624;48.126;11.546;2022-12-08T07:14:06;10.23;;;7.53;;
9178;SDS011;4624;48.126;11.546;2022-12-08T07:16:32;12.60;;;8.70;;
9178;SDS011;4624;48.126;11.546;2022-12-08T07:19:00;13.13;;;9.20;;
9178;SDS011;4624;48.126;11.546;2022-12-08T07:21:27;13.00;;;8.93;;
9178;SDS011;4624;48.126;11.546;2022-12-08T07:23:54;12.53;;;9.07;;
9178;SDS011;4624;48.126;11.546;2022-12-08T07:26:21;11.67;;;8.57;;
9178;SDS011;4624;48.126;11.546;2022-12-08T07:28:47;11.57;;;8.70;;
9178;SDS011;4624;48.126;11.546;2022-12-08T07:31:16;11.53;;;9.00;;
9178;SDS011;4624;48.126;11.546;2022-12-08T07:33:44;14.27;;;9.53;;
9178;SDS011;4624;48.126;11.546;2022-12-08T07:36:12;12.20;;;9.07;;
9178;SDS011;4624;48.126;11.546;2022-12-08T07:38:39;12.97;;;8.77;;
9178;SDS011;4624;48.126;11.546;2022-12-08T07:41:09;12.33;;;7.77;;
9178;SDS011;4624;48.126;11.546;2022-12-08T07:43:37;11.53;;;7.70;;
9178;SDS011;4624;48.126;11.546;2022-12-08T07:46:04;10.80;;;7.83;;
9178;SDS011;4624;48.126;11.546;2022-12-08T07:48:31;11.47;;;7.93;;
9178;SDS011;4624;48.126;11.546;2022-12-08T07:51:01;12.63;;;7.93;;
9178;SDS011;4624;48.126;11.546;2022-12-08T07:53:30;10.27;;;8.60;;
9178;SDS011;4624;48.126;11.546;2022-12-08T07:55:57;11.37;;;7.87;;
9178;SDS011;4624;48.126;11.546;2022-12-08T07:58:24;10.37;;;7.13;;
9178;SDS011;4624;48.126;11.546;2022-12-08T08:00:52;11.23;;;7.63;;
9178;SDS011;4624;48.126;11.546;2022-12-08T08:03:18;10.70;;;7.70;;
9178;SDS011;4624;48.126;11.546;2022-12-08T08:05:46;11.17;;;7.90;;
9178;SDS011;4624;48.126;11.546;2022-12-08T08:08:14;10.10;;;7.87;;
9178;SDS011;4624;48.126;11.546;2022-12-08T08:10:42;9.50;;;7.17;;
9178;SDS011;4624;48.126;11.546;2022-12-08T08:13:10;8.53;;;6.90;;
9178;SDS011;4624;48.126;11.546;2022-12-08T08:15:37;12.03;;;7.57;;
9178;SDS011;4624;48.126;11.546;2022-12-08T08:18:03;10.77;;;7.70;;
9178;SDS011;4624;48.126;11.546;2022-12-08T08:20:30;7.80;;;6.63;;
9178;SDS011;4624;48.126;11.546;2022-12-08T08:22:57;9.73;;;7.03;;
9178;SDS011;4624;48.126;11.546;2022-12-08T08:25:24;10.33;;;7.87;;
9178;SDS011;4624;48.126;11.546;2022-12-08T08:27:52;9.37;;;7.03;;
9178;SDS011;4624;48.126;11.546;2022-12-08T08:30:19;9.10;;;7.07;;
9178;SDS011;4624;48.126;11.546;2022-12-08T08:32:46;10.70;;;7.57;;
9178;SDS011;4624;48.126;11.546;2022-12-08T08:35:13;10.40;;;8.37;;
9178;SDS011;4624;48.126;11.546;2022-12-08T08:37:39;11.13;;;8.10;;
9178;SDS011;4624;48.126;11.546;2022-12-08T08:40:07;9.43;;;7.30;;
9178;SDS011;4624;48.126;11.546;2022-12-08T08:42:34;8.37;;;6.73;;
9178;SDS011;4624;48.126;11.546;2022-12-08T08:45:02;10.07;;;7.73;;
9178;SDS011;4624;48.126;11.546;2022-12-08T08:47:29;11.80;;;6.97;;
9178;SDS011;4624;48.126;11.546;2022-12-08T08:49:56;9.07;;;6.90;;
9178;SDS011;4624;48.126;11.546;2022-12-08T08:52:23;8.83;;;6.97;;
9178;SDS011;4624;48.126;11.546;2022-12-08T08:54:49;11.40;;;7.60;;
9178;SDS011;4624;48.126;11.546;2022-12-08T08:57:16;9.53;;;7.00;;
9178;SDS011;4624;48.126;11.546;2022-12-08T08:59:43;9.83;;;7.63;;
9178;SDS011;4624;48.126;11.546;2022-12-08T09:02:14;9.70;;;6.97;;
9178;SDS011;4624;48.126;11.546;2022-12-08T09:04:42;8.80;;;6.37;;
9178;SDS011;4624;48.126;11.546;2022-12-08T09:07:09;7.77;;;6.50;;
9178;SDS011;4624;48.126;11.546;2022-12-08T09:09:36;8.83;;;7.20;;
9178;SDS011;4624;48.126;11.546;2022-12-08T09:12:04;10.37;;;8.00;;
9178;SDS011;4624;48.126;11.546;2022-12-08T09:14:31;11.27;;;8.57;;
9178;SDS011;4624;48.126;11.546;2022-12-08T09:16:57;11.37;;;8.57;;
9178;SDS011;4624;48.126;11.546;2022-12-08T09:19:25;11.43;;;8.57;;
9178;SDS011;4624;48.126;11.546;2022-12-08T09:21:52;10.67;;;8.30;;
9178;SDS011;4624;48.126;11.546;2022-12-08T09:24:19;11.20;;;8.57;;
9178;SDS011;4624;48.126;11.546;2022-12-08T09:26:47;11.40;;;8.57;;
9178;SDS011;4624;48.126;11.546;2022-12-08T09:29:14;10.97;;;8.57;;
9178;SDS011;4624;48.126;11.546;2022-12-08T09:31:41;12.57;;;8.97;;
9178;SDS011;4624;48.126;11.546;2022-12-08T09:34:09;14.50;;;9.80;;
9178;SDS011;4624;48.126;11.546;2022-12-08T09:36:38;14.80;;;10.40;;
9178;SDS011;4624;48.126;11.546;2022-12-08T09:39:05;13.10;;;9.90;;
9178;SDS011;4624;48.126;11.546;2022-12-08T09:41:32;15.97;;;10.80;;
9178;SDS011;4624;48.126;11.546;2022-12-08T09:44:02;14.07;;;10.27;;
9178;SDS011;4624;48.126;11.546;2022-12-08T09:46:41;13.13;;;9.20;;
9178;SDS011;4624;48.126;11.546;2022-12-08T09:49:10;13.23;;;10.30;;
9178;SDS011;4624;48.126;11.546;2022-12-08T09:51:41;12.90;;;8.97;;
9178;SDS011;4624;48.126;11.546;2022-12-08T09:54:10;12.40;;;9.57;;
9178;SDS011;4624;48.126;11.546;2022-12-08T09:56:42;13.67;;;9.90;;
9178;SDS011;4624;48.126;11.546;2022-12-08T09:59:14;16.03;;;10.73;;
9178;SDS011;4624;48.126;11.546;2022-12-08T10:01:48;14.77;;;10.87;;
9178;SDS011;4624;48.126;11.546;2022-12-08T10:04:19;13.97;;;9.93;;
9178;SDS011;4624;48.126;11.546;2022-12-08T10:06:50;11.77;;;9.63;;
9178;SDS011;4624;48.126;11.546;2022-12-08T10:09:26;15.67;;;11.20;;
9178;SDS011;4624;48.126;11.546;2022-12-08T10:11:59;16.63;;;9.80;;
9178;SDS011;4624;48.126;11.546;2022-12-08T10:14:32;12.17;;;10.03;;
9178;SDS011;4624;48.126;11.546;2022-12-08T10:17:08;13.73;;;9.43;;
9178;SDS011;4624;48.126;11.546;2022-12-08T10:19:43;12.70;;;10.10;;
9178;SDS011;4624;48.126;11.546;2022-12-08T10:22:13;13.70;;;10.17;;
9178;SDS011;4624;48.126;11.546;2022-12-08T10:24:45;11.63;;;9.63;;
9178;SDS011;4624;48.126;11.546;2022-12-08T10:27:20;15.30;;;10.27;;
9178;SDS011;4624;48.126;11.546;2022-12-08T10:29:48;14.13;;;10.03;;
9178;SDS011;4624;48.126;11.546;2022-12-08T10:32:16;15.33;;;10.20;;
9178;SDS011;4624;48.126;11.546;2022-12-08T10:34:57;13.73;;;11.33;;
9178;SDS011;4624;48.126;11.546;2022-12-08T10:37:27;15.90;;;11.23;;
9178;SDS011;4624;48.126;11.546;2022-12-08T10:39:58;12.43;;;10.47;;
9178;SDS011;4624;48.126;11.546;2022-12-08T10:42:28;12.63;;;9.93;;
9178;SDS011;4624;48.126;11.546;2022-12-08T10:45:02;14.03;;;10.50;;
9178;SDS011;4624;48.126;11.546;2022-12-08T10:47:41;14.23;;;10.47;;
9178;SDS011;4624;48.126;11.546;2022-12-08T10:50:16;15.97;;;11.97;;
9178;SDS011;4624;48.126;11.546;2022-12-08T10:52:45;13.93;;;10.63;;
9178;SDS011;4624;48.126;11.546;2022-12-08T10:55:20;16.67;;;11.07;;
9178;SDS011;4624;48.126;11.546;2022-12-08T10:57:47;13.97;;;10.97;;
9178;SDS011;4624;48.126;11.546;2022-12-08T11:00:16;15.27;;;10.87;;
9178;SDS011;4624;48.126;11.546;2022-12-08T11:02:54;22.10;;;11.83;;
9178;SDS011;4624;48.126;11.546;2022-12-08T11:05:26;15.23;;;11.30;;
9178;SDS011;4624;48.126;11.546;2022-12-08T11:07:58;15.43;;;11.60;;
9178;SDS011;4624;48.126;11.546;2022-12-08T11:10:28;14.57;;;11.27;;
9178;SDS011;4624;48.126;11.546;2022-12-08T11:12:59;18.20;;;10.87;;
9178;SDS011;4624;48.126;11.546;2022-12-08T11:15:30;15.90;;;11.27;;
9178;SDS011;4624;48.126;11.546;2022-12-08T11:18:05;15.10;;;10.53;;
9178;SDS011;4624;48.126;11.546;2022-12-08T11:20:39;15.53;;;11.33;;
9178;SDS011;4624;48.126;11.546;2022-12-08T11:23:19;17.57;;;11.93;;
9178;SDS011;4624;48.126;11.546;2022-12-08T11:25:47;15.43;;;11.27;;
9178;SDS011;4624;48.126;11.546;2022-12-08T11:30:46;15.37;;;10.80;;
9178;SDS011;4624;48.126;11.546;2022-12-08T11:33:18;18.13;;;11.70;;
9178;SDS011;4624;48.126;11.546;2022-12-08T11:35:49;19.20;;;12.53;;
9178;SDS011;4624;48.126;11.546;2022-12-08T11:38:20;15.70;;;11.00;;
9178;SDS011;4624;48.126;11.546;2022-12-08T11:40:48;13.50;;;10.13;;
9178;SDS011;4624;48.126;11.546;2022-12-08T11:43:17;16.17;;;11.40;;
9178;SDS011;4624;48.126;11.546;2022-12-08T11:45:48;14.43;;;11.13;;
9178;SDS011;4624;48.126;11.546;2022-12-08T11:48:22;17.63;;;12.00;;
9178;SDS011;4624;48.126;11.546;2022-12-08T11:50:56;15.60;;;11.40;;
9178;SDS011;4624;48.126;11.546;2022-12-08T11:53:34;12.57;;;10.37;;
9178;SDS011;4624;48.126;11.546;2022-12-08T11:56:09;16.80;;;10.83;;
9178;SDS011;4624;48.126;11.546;2022-12-08T11:58:42;15.77;;;10.47;;
9178;SDS011;4624;48.126;11.546;2022-12-08T12:01:15;16.87;;;10.90;;
9178;SDS011;4624;48.126;11.546;2022-12-08T12:03:46;12.80;;;10.57;;
9178;SDS011;4624;48.126;11.546;2022-12-08T12:06:23;14.73;;;10.40;;
9178;SDS011;4624;48.126;11.546;2022-12-08T12:09:16;15.30;;;10.93;;
9178;SDS011;4624;48.126;11.546;2022-12-08T12:11:52;16.70;;;10.77;;
9178;SDS011;4624;48.126;11.546;2022-12-08T12:14:44;16.23;;;11.70;;
9178;SDS011;4624;48.126;11.546;2022-12-08T12:17:25;16.33;;;10.70;;
9178;SDS011;4624;48.126;11.546;2022-12-08T12:20:02;14.70;;;10.57;;
9178;SDS011;4624;48.126;11.546;2022-12-08T12:22:37;14.47;;;10.60;;
9178;SDS011;4624;48.126;11.546;2022-12-08T12:25:14;14.77;;;10.80;;
9178;SDS011;4624;48.126;11.546;2022-12-08T12:27:43;17.40;;;10.80;;
9178;SDS011;4624;48.126;11.546;2022-12-08T12:30:17;17.20;;;10.67;;
9178;SDS011;4624;48.126;11.546;2022-12-08T12:32:47;17.67;;;11.03;;
9178;SDS011;4624;48.126;11.546;2022-12-08T12:35:19;14.67;;;10.57;;
9178;SDS011;4624;48.126;11.546;2022-12-08T12:37:49;16.53;;;11.77;;
9178;SDS011;4624;48.126;11.546;2022-12-08T12:40:18;14.87;;;10.47;;
9178;SDS011;4624;48.126;11.546;2022-12-08T12:42:47;14.73;;;9.63;;
9178;SDS011;4624;48.126;11.546;2022-12-08T12:45:39;15.30;;;10.90;;
9178;SDS011;4624;48.126;11.546;2022-12-08T12:48:21;15.63;;;10.90;;
9178;SDS011;4624;48.126;11.546;2022-12-08T12:50:49;13.43;;;9.80;;
9178;SDS011;4624;48.126;11.546;2022-12-08T12:56:12;14.57;;;10.03;;
9178;SDS011;4624;48.126;11.546;2022-12-08T12:59:21;14.13;;;9.60;;
9178;SDS011;4624;48.126;11.546;2022-12-08T13:01:59;14.83;;;9.50;;
9178;SDS011;4624;48.126;11.546;2022-12-08T13:04:27;18.23;;;10.80;;
9178;SDS011;4624;48.126;11.546;2022-12-08T13:06:56;12.50;;;10.17;;
9178;SDS011;4624;48.126;11.546;2022-12-08T13:09:31;10.73;;;9.37;;
9178;SDS011;4624;48.126;11.546;2022-12-08T13:12:06;15.27;;;9.97;;
9178;SDS011;4624;48.126;11.546;2022-12-08T13:14:36;13.73;;;9.73;;
9178;SDS011;4624;48.126;11.546;2022-12-08T13:17:11;11.90;;;9.53;;
9178;SDS011;4624;48.126;11.546;2022-12-08T13:19:42;13.67;;;9.47;;
9178;SDS011;4624;48.126;11.546;2022-12-08T13:28:17;15.77;;;9.77;;
9178;SDS011;4624;48.126;11.546;2022-12-08T13:30:51;14.37;;;9.73;;
9178;SDS011;4624;48.126;11.546;2022-12-08T13:33:23;14.00;;;10.63;;
9178;SDS011;4624;48.126;11.546;2022-12-08T13:36:00;17.27;;;10.80;;
9178;SDS011;4624;48.126;11.546;2022-12-08T13:38:35;14.30;;;10.63;;
9178;SDS011;4624;48.126;11.546;2022-12-08T13:41:05;14.20;;;10.63;;
9178;SDS011;4624;48.126;11.546;2022-12-08T13:43:39;16.93;;;10.87;;
9178;SDS011;4624;48.126;11.546;2022-12-08T13:46:11;13.73;;;10.13;;
9178;SDS011;4624;48.126;11.546;2022-12-08T13:48:45;15.20;;;10.57;;
9178;SDS011;4624;48.126;11.546;2022-12-08T13:51:16;12.50;;;9.53;;
9178;SDS011;4624;48.126;11.546;2022-12-08T13:53:50;17.27;;;11.37;;
9178;SDS011;4624;48.126;11.546;2022-12-08T13:56:24;14.77;;;10.33;;
9178;SDS011;4624;48.126;11.546;2022-12-08T13:59:05;15.60;;;11.17;;
9178;SDS011;4624;48.126;11.546;2022-12-08T14:01:34;16.63;;;10.80;;
9178;SDS011;4624;48.126;11.546;2022-12-08T14:04:11;16.17;;;10.00;;
9178;SDS011;4624;48.126;11.546;2022-12-08T14:06:41;16.37;;;9.07;;
9178;SDS011;4624;48.126;11.546;2022-12-08T14:09:10;14.27;;;9.63;;
9178;SDS011;4624;48.126;11.546;2022-12-08T14:11:40;14.67;;;8.93;;
9178;SDS011;4624;48.126;11.546;2022-12-08T14:14:13;12.40;;;9.53;;
9178;SDS011;4624;48.126;11.546;2022-12-08T14:16:47;12.50;;;8.40;;
9178;SDS011;4624;48.126;11.546;2022-12-08T14:19:17;13.40;;;9.50;;
9178;SDS011;4624;48.126;11.546;2022-12-08T14:21:45;16.30;;;9.93;;
9178;SDS011;4624;48.126;11.546;2022-12-08T14:24:15;13.73;;;9.30;;
9178;SDS011;4624;48.126;11.546;2022-12-08T14:26:42;18.00;;;9.77;;
9178;SDS011;4624;48.126;11.546;2022-12-08T14:29:12;12.20;;;9.53;;
9178;SDS011;4624;48.126;11.546;2022-12-08T14:31:56;13.57;;;9.03;;
9178;SDS011;4624;48.126;11.546;2022-12-08T14:34:23;13.37;;;9.47;;
9178;SDS011;4624;48.126;11.546;2022-12-08T14:36:49;14.13;;;9.23;;
9178;SDS011;4624;48.126;11.546;2022-12-08T14:39:18;15.10;;;10.43;;
9178;SDS011;4624;48.126;11.546;2022-12-08T14:41:57;14.10;;;10.00;;
9178;SDS011;4624;48.126;11.546;2022-12-08T14:44:24;14.53;;;9.70;;
9178;SDS011;4624;48.126;11.546;2022-12-08T14:47:04;19.17;;;11.10;;
9178;SDS011;4624;48.126;11.546;2022-12-08T14:49:32;15.83;;;10.43;;
9178;SDS011;4624;48.126;11.546;2022-12-08T14:52:00;15.70;;;10.87;;
9178;SDS011;4624;48.126;11.546;2022-12-08T14:54:28;14.77;;;10.30;;
9178;SDS011;4624;48.126;11.546;2022-12-08T14:56:56;17.00;;;11.17;;
9178;SDS011;4624;48.126;11.546;2022-12-08T14:59:26;14.77;;;10.33;;
9178;SDS011;4624;48.126;11.546;2022-12-08T15:02:09;15.90;;;10.83;;
9178;SDS011;4624;48.126;11.546;2022-12-08T15:04:38;14.70;;;10.87;;
9178;SDS011;4624;48.126;11.546;2022-12-08T15:07:09;14.87;;;10.97;;
9178;SDS011;4624;48.126;11.546;2022-12-08T15:09:39;16.60;;;9.70;;
9178;SDS011;4624;48.126;11.546;2022-12-08T15:12:17;12.90;;;9.97;;
9178;SDS011;4624;48.126;11.546;2022-12-08T15:14:53;14.20;;;10.37;;
9178;SDS011;4624;48.126;11.546;2022-12-08T15:17:30;13.07;;;10.00;;
9178;SDS011;4624;48.126;11.546;2022-12-08T15:20:00;14.20;;;10.20;;
9178;SDS011;4624;48.126;11.546;2022-12-08T15:22:28;14.80;;;10.20;;